createdAt,value
2018-12-16T00:01:46.830Z,12.20
2018-12-16T00:06:42.849Z,13.60
2018-12-16T00:11:38.880Z,13.07
2018-12-16T00:16:34.983Z,13.13
2018-12-16T00:21:31.133Z,11.97
2018-12-16T00:26:32.026Z,13.03
2018-12-16T00:31:28.052Z,12.53
2018-12-16T00:36:24.068Z,12.03
2018-12-16T00:41:20.129Z,14.40
2018-12-16T00:46:16.274Z,12.63
2018-12-16T00:51:12.285Z,11.70
2018-12-16T00:56:08.321Z,13.07
2018-12-16T01:01:04.443Z,14.33
2018-12-16T01:06:00.458Z,13.10
2018-12-16T01:10:56.599Z,12.57
2018-12-16T01:15:52.615Z,15.70
2018-12-16T01:20:48.675Z,14.13
2018-12-16T01:25:44.789Z,13.20
2018-12-16T01:30:40.793Z,11.60
2018-12-16T01:35:36.809Z,15.33
2018-12-16T01:40:32.849Z,13.30
2018-12-16T01:45:28.849Z,14.87
2018-12-16T01:50:24.865Z,13.70
2018-12-16T01:55:20.932Z,14.87
2018-12-16T02:00:16.964Z,14.30
2018-12-16T02:05:12.997Z,14.70
2018-12-16T02:10:09.247Z,15.37
2018-12-16T02:15:05.373Z,14.47
2018-12-16T02:20:02.321Z,14.00
2018-12-16T02:24:58.394Z,13.30
2018-12-16T02:29:54.401Z,13.90
2018-12-16T02:34:50.419Z,13.03
2018-12-16T02:39:46.437Z,12.13
2018-12-16T02:44:42.461Z,14.90
2018-12-16T02:49:38.479Z,12.97
2018-12-16T02:54:34.526Z,14.00
2018-12-16T02:59:30.826Z,13.77
2018-12-16T03:04:27.164Z,11.70
2018-12-16T03:09:23.189Z,13.63
2018-12-16T03:14:19.193Z,13.80
2018-12-16T03:19:15.254Z,13.20
2018-12-16T03:24:11.274Z,12.77
2018-12-16T03:29:07.284Z,13.60
2018-12-16T03:34:03.311Z,13.23
2018-12-16T03:38:59.420Z,13.00
2018-12-16T03:43:55.440Z,11.97
2018-12-16T03:48:51.472Z,12.70
2018-12-16T03:53:47.490Z,12.50
2018-12-16T03:58:55.970Z,12.37
2018-12-16T04:03:52.013Z,13.40
2018-12-16T04:08:48.026Z,13.33
2018-12-16T04:13:44.031Z,12.60
2018-12-16T04:18:40.049Z,13.90
2018-12-16T04:23:36.065Z,13.00
2018-12-16T04:28:32.956Z,12.97
2018-12-16T04:33:28.966Z,9.63
2018-12-16T04:38:24.994Z,13.53
2018-12-16T04:43:21.025Z,14.53
2018-12-16T04:48:17.078Z,13.60
2018-12-16T04:53:13.162Z,14.20
2018-12-16T04:58:10.014Z,12.43
2018-12-16T05:03:06.036Z,11.97
2018-12-16T05:08:02.233Z,13.93
2018-12-16T05:12:58.268Z,13.13
2018-12-16T05:17:54.281Z,13.43
2018-12-16T05:22:50.309Z,12.13
2018-12-16T05:27:48.336Z,11.50
2018-12-16T05:32:44.442Z,13.00
2018-12-16T05:37:40.457Z,12.20
2018-12-16T05:42:36.464Z,13.33
2018-12-16T05:47:32.475Z,13.60
2018-12-16T05:52:28.487Z,14.03
2018-12-16T05:57:25.870Z,14.60
2018-12-16T06:02:21.904Z,13.70
2018-12-16T06:07:17.915Z,13.83
2018-12-16T06:12:14.073Z,12.23
2018-12-16T06:17:10.057Z,13.40
2018-12-16T06:22:06.062Z,13.23
2018-12-16T06:27:02.080Z,14.50
2018-12-16T06:31:58.094Z,13.50
2018-12-16T06:36:54.185Z,14.53
2018-12-16T06:41:50.226Z,14.50
2018-12-16T06:46:46.248Z,12.40
2018-12-16T06:51:42.266Z,14.03
2018-12-16T06:56:38.273Z,12.97
2018-12-16T07:01:34.398Z,11.80
2018-12-16T07:06:30.444Z,13.37
2018-12-16T07:11:26.498Z,15.90
2018-12-16T07:16:22.564Z,12.53
2018-12-16T07:21:18.605Z,16.20
2018-12-16T07:26:14.653Z,14.80
2018-12-16T07:31:10.725Z,15.30
2018-12-16T07:36:06.810Z,16.60
2018-12-16T07:41:03.011Z,18.20
2018-12-16T07:45:59.075Z,16.43
2018-12-16T07:50:55.193Z,17.07
2018-12-16T07:55:51.271Z,16.40
2018-12-16T08:00:47.479Z,15.20
2018-12-16T08:05:43.531Z,16.87
2018-12-16T08:10:39.691Z,20.40
2018-12-16T08:15:35.745Z,17.73
2018-12-16T08:20:31.783Z,17.63
2018-12-16T08:25:27.861Z,17.97
2018-12-16T08:30:24.129Z,16.83
2018-12-16T08:35:20.387Z,15.23
2018-12-16T08:40:16.491Z,17.40
2018-12-16T08:45:12.518Z,16.30
2018-12-16T08:50:08.580Z,18.03
2018-12-16T08:55:04.641Z,16.47
2018-12-16T09:00:00.725Z,16.70
2018-12-16T09:04:56.795Z,19.60
2018-12-16T09:09:52.877Z,18.30
2018-12-16T09:14:48.926Z,18.67
2018-12-16T09:19:44.982Z,19.23
2018-12-16T09:24:41.025Z,18.60
2018-12-16T09:29:37.053Z,18.50
2018-12-16T09:34:33.106Z,20.63
2018-12-16T09:39:29.193Z,19.27
2018-12-16T09:44:25.273Z,18.47
2018-12-16T09:49:21.309Z,19.40
2018-12-16T09:54:17.381Z,21.40
2018-12-16T09:59:14.074Z,19.97
2018-12-16T10:04:10.721Z,19.60
2018-12-16T10:09:06.976Z,18.03
2018-12-16T10:19:25.967Z,17.60
2018-12-16T10:24:23.198Z,20.70
2018-12-16T10:29:19.317Z,18.60
2018-12-16T10:34:15.350Z,19.60
2018-12-16T10:39:11.495Z,17.13
2018-12-16T10:44:07.542Z,19.77
2018-12-16T10:49:05.002Z,18.80
2018-12-16T10:54:01.293Z,21.17
2018-12-16T10:58:57.304Z,18.57
2018-12-16T11:03:53.326Z,19.10
2018-12-16T11:08:49.684Z,20.20
2018-12-16T11:13:45.703Z,20.17
2018-12-16T11:18:41.733Z,18.30
2018-12-16T11:23:37.799Z,18.73
2018-12-16T11:28:34.503Z,17.93
2018-12-16T11:33:30.761Z,17.03
2018-12-16T11:43:54.335Z,19.60
2018-12-16T11:48:50.579Z,18.77
2018-12-16T11:53:46.803Z,17.90
2018-12-16T11:58:43.707Z,17.87
2018-12-16T12:03:39.827Z,17.53
2018-12-16T12:08:36.135Z,19.40
2018-12-16T12:13:32.360Z,18.37
2018-12-16T12:18:28.600Z,19.30
2018-12-16T12:23:24.850Z,19.60
2018-12-16T12:28:21.834Z,17.70
2018-12-16T12:33:18.215Z,18.30
2018-12-16T12:38:14.404Z,19.33
2018-12-16T12:43:10.769Z,19.17
2018-12-16T12:48:07.033Z,17.97
2018-12-16T12:53:03.976Z,17.87
2018-12-16T12:58:02.150Z,19.53
2018-12-16T13:02:58.446Z,18.30
2018-12-16T13:07:54.587Z,19.63
2018-12-16T13:12:50.748Z,19.13
2018-12-16T13:17:47.007Z,17.80
2018-12-16T13:22:43.122Z,18.17
2018-12-16T13:27:39.277Z,18.10
2018-12-16T13:32:35.373Z,19.17
2018-12-16T13:37:31.531Z,19.13
2018-12-16T13:42:28.083Z,16.17
2018-12-16T13:47:24.253Z,19.20
2018-12-16T13:52:20.333Z,19.20
2018-12-16T13:57:16.526Z,17.90
2018-12-16T14:02:12.593Z,19.07
2018-12-16T14:07:08.678Z,20.00
2018-12-16T14:12:04.873Z,19.13
2018-12-16T14:17:00.983Z,19.73
2018-12-16T14:21:57.197Z,19.73
2018-12-16T14:26:53.356Z,18.30
2018-12-16T14:31:49.430Z,19.20
2018-12-16T14:36:45.517Z,19.80
2018-12-16T14:41:41.764Z,19.37
2018-12-16T14:46:38.885Z,18.93
2018-12-16T14:51:34.951Z,19.80
2018-12-16T14:56:31.035Z,19.53
2018-12-16T15:01:27.189Z,18.97
2018-12-16T15:06:23.298Z,17.43
2018-12-16T15:11:19.375Z,18.93
2018-12-16T15:16:15.469Z,19.67
2018-12-16T15:21:11.550Z,19.20
2018-12-16T15:26:07.746Z,20.60
2018-12-16T15:31:03.838Z,20.40
2018-12-16T15:36:00.050Z,20.17
2018-12-16T15:40:56.298Z,20.03
2018-12-16T15:45:52.385Z,17.13
2018-12-16T15:50:48.429Z,20.07
2018-12-16T15:55:44.474Z,19.50
2018-12-16T16:00:40.514Z,18.77
2018-12-16T16:05:36.625Z,19.57
2018-12-16T16:10:32.793Z,20.10
2018-12-16T16:15:28.836Z,20.60
2018-12-16T16:20:24.897Z,20.90
2018-12-16T16:25:27.985Z,19.70
2018-12-16T16:30:24.036Z,20.47
2018-12-16T16:35:20.137Z,19.00
2018-12-16T16:40:16.528Z,20.97
2018-12-16T16:45:12.601Z,19.60
2018-12-16T16:50:08.663Z,19.33
2018-12-16T16:55:04.933Z,19.50
2018-12-16T17:00:00.973Z,20.53
2018-12-16T17:04:57.107Z,22.20
2018-12-16T17:09:53.255Z,19.50
2018-12-16T17:14:49.395Z,19.47
2018-12-16T17:19:45.533Z,20.07
2018-12-16T17:24:41.665Z,20.10
2018-12-16T17:29:38.397Z,21.13
2018-12-16T17:34:34.488Z,20.43
2018-12-16T17:39:32.521Z,20.13
2018-12-16T17:44:28.583Z,18.33
2018-12-16T17:49:25.778Z,21.60
2018-12-16T17:54:21.834Z,20.00
2018-12-16T17:59:18.491Z,22.47
2018-12-16T18:04:16.714Z,21.27
2018-12-16T18:09:14.645Z,20.60
2018-12-16T18:14:11.285Z,20.80
2018-12-16T18:19:07.465Z,20.80
2018-12-16T18:24:05.458Z,21.27
2018-12-16T18:29:01.693Z,20.03
2018-12-16T18:33:58.285Z,21.20
2018-12-16T18:38:54.410Z,20.70
2018-12-16T18:43:50.489Z,20.60
2018-12-16T18:48:46.528Z,20.03
2018-12-16T18:53:42.562Z,20.67
2018-12-16T18:58:38.608Z,21.33
2018-12-16T19:03:34.894Z,20.83
2018-12-16T19:08:31.050Z,19.93
2018-12-16T19:13:27.088Z,21.43
2018-12-16T19:18:24.945Z,20.17
2018-12-16T19:23:21.135Z,19.90
2018-12-16T19:28:17.888Z,20.63
2018-12-16T19:33:13.993Z,19.67
2018-12-16T19:38:10.033Z,21.87
2018-12-16T19:43:06.087Z,21.07
2018-12-16T19:48:02.135Z,21.90
2018-12-16T19:52:58.176Z,21.37
2018-12-16T19:57:56.894Z,20.97
2018-12-16T20:02:53.002Z,21.00
2018-12-16T20:07:49.296Z,19.23
2018-12-16T20:12:45.343Z,21.07
2018-12-16T20:17:41.403Z,20.90
2018-12-16T20:22:37.515Z,20.30
2018-12-16T20:27:33.646Z,20.97
2018-12-16T20:32:29.708Z,20.40
2018-12-16T20:37:25.750Z,20.63
2018-12-16T20:42:21.831Z,20.37
2018-12-16T20:47:17.932Z,20.50
2018-12-16T20:52:14.093Z,20.97
2018-12-16T20:57:10.150Z,22.63
2018-12-16T21:02:06.286Z,23.27
2018-12-16T21:07:02.439Z,21.77
2018-12-16T21:11:59.873Z,21.40
2018-12-16T21:17:01.932Z,21.73
2018-12-16T21:21:57.999Z,20.30
2018-12-16T21:26:54.058Z,18.40
2018-12-16T21:31:50.106Z,21.73
2018-12-16T21:36:46.177Z,22.80
2018-12-16T21:41:42.258Z,22.13
2018-12-16T21:46:38.307Z,22.43
2018-12-16T21:51:34.377Z,21.33
2018-12-16T21:56:30.864Z,21.43
2018-12-16T22:01:26.966Z,21.67
2018-12-16T22:06:23.019Z,22.67
2018-12-16T22:11:19.067Z,18.67
2018-12-16T22:16:15.225Z,20.80
2018-12-16T22:21:11.261Z,21.23
2018-12-16T22:26:07.297Z,21.90
2018-12-16T22:31:03.339Z,21.77
2018-12-16T22:35:59.370Z,21.40
2018-12-16T22:40:55.475Z,21.67
2018-12-16T22:45:52.583Z,23.27
2018-12-16T22:50:48.622Z,21.40
2018-12-16T22:55:44.662Z,22.10
2018-12-16T23:06:14.470Z,19.70
2018-12-16T23:11:10.487Z,21.20
2018-12-16T23:16:06.625Z,21.23
2018-12-16T23:21:05.119Z,21.50
2018-12-16T23:26:01.134Z,22.20
2018-12-16T23:30:57.270Z,21.37
2018-12-16T23:35:53.266Z,21.23
2018-12-16T23:40:49.289Z,22.00
2018-12-16T23:45:45.301Z,20.90
2018-12-16T23:50:41.317Z,20.27
2018-12-16T23:55:37.344Z,22.70
